เทศบาลนครเชียงใหม่, ประเทศไทย

03:10 PM ICT วัน กุมภาพันธ์ 07, 2016 (GMT +0700)
ThaiWx Station | | Change Station
CLOSE
Current Station
Personal Weather Stations
Location: Chiang Mai, Pa Daet
Elevation: 1007 ft
Nearby Weather Stations

Elev 1007 ft 18.77 °N, 98.97 °E | Updated 1 minute ago

Partly Cloudy
มีเมฆคลุมเป็นส่วนๆ
79.0 ฟาเรนไฮน์
Feels Like 80 ฟาเรนไฮน์
N
0.0
ลม ความผันแปร ลม from ทางทิศเหนือและทิศตะวันตกเฉียงเหนือ
Gusts 0.0 mph

วันนี้
High -- | Low -- ฟาเรนไฮน์
--% Chance of Precip.
Yesterday
High -- | Low -- ฟาเรนไฮน์
Precip. -- นิ้ว
ความดัน 30.12 นิ้ว
ทัศนวิสัย 6.2 ไมล์
เมฆ Few 3500 ft
ดัชนีความร้อน 80 ฟาเรนไฮน์
อุณหภูมิที่อากาศอาจจับตัวเป็นหยาดน้ำค้าง 55 ฟาเรนไฮน์
ความชื้น 44%
Rainfall 0.00 นิ้ว
Snow Depth Not available.
6:56 AM 6:20 PM
เดือนเสี้ยว, 2% visible
METAR VTCC 070800Z 02005KT 9999 FEW035 24/08 Q1020 A3014 NOSIG
ความดัน 30.12 นิ้ว
ทัศนวิสัย 6.2 ไมล์
เมฆ Few 3500 ft
ดัชนีความร้อน 80 ฟาเรนไฮน์
อุณหภูมิที่อากาศอาจจับตัวเป็นหยาดน้ำค้าง 55 ฟาเรนไฮน์
ความชื้น 44%
Rainfall 0.00 นิ้ว
Snow Depth Not available.
6:56 AM 6:20 PM
เดือนเสี้ยว, 2% visible
METAR VTCC 070800Z 02005KT 9999 FEW035 24/08 Q1020 A3014 NOSIG

10-Day Weather Forecast

No radar image for this location.
×

Almanac

ดาราศาสตร์

Feb. 07, 2016 Rise Set
Actual Time
Civil Twilight
Nautical Twilight
Astronomical Twilight
Moon
Length Of Visible Light
ความยาวของวัน
Tomorrow will be .
, % of the Moon is Illuminated

Today's Extremes

Country Highs Country Lows

Community

WunderPhotos

Upload Photos

1,891,171 photos uploaded!

WunderBlog® & News

Nearby

Air Quality

  Air Quality AQ Index Pollutant
Not available.

Snow Depth

Station Depth Elevation

Earthquake Activity

City Distance Mag. Time & Date
Minimum magnitude displayed is 2.5.

Coastal Water Temperatures

สถานที่ อุณหภูมิ

Stations

Nearby Weather Stations

Station Location Temp ลมหนาว อุณหภูมิที่อากาศอาจจับตัวเป็นหยาดน้ำค้าง ความชื้น ลม Precip. Elev ปรับปรุงล่าสุด Type